Time;durP1;ratioP1;P1;durP2;ratioP2;P2;SDS_P1;SDS_P2;PMS_P1;PMS_P2;Temp;Humidity;BMP_temperature;BMP_pressure;BME280_temperature;BME280_humidity;BME280_pressure;Samples;Min_cycle;Max_cycle;Signal;HPM_P1;HPM_P2
2021/04/18 00:00:41;;;;;;;28.02;16.63;;;22.80;41.00;;;;;;6190292;28;83175;-64
2021/04/18 00:03:41;;;;;;;25.55;16.40;;;22.80;40.90;;;;;;6186467;28;83395;-65
2021/04/18 00:06:42;;;;;;;25.73;17.13;;;22.80;40.80;;;;;;6199973;27;85340;-64
2021/04/18 00:09:44;;;;;;;26.73;16.85;;;22.80;41.30;;;;;;6187174;28;83613;-65
2021/04/18 00:12:44;;;;;;;26.15;17.13;;;22.80;41.00;;;;;;6195176;27;83535;-64
2021/04/18 00:15:45;;;;;;;24.67;16.05;;;22.80;41.00;;;;;;6189834;28;83383;-65
2021/04/18 00:18:45;;;;;;;25.25;16.85;;;22.80;40.90;;;;;;6184298;28;83292;-65
2021/04/18 00:21:48;;;;;;;28.88;17.52;;;22.80;41.10;;;;;;6195699;28;83578;-65
2021/04/18 00:24:48;;;;;;;25.38;17.00;;;22.80;40.80;;;;;;6200421;28;83497;-64
2021/04/18 00:27:49;;;;;;;26.35;17.65;;;22.70;41.10;;;;;;6200187;28;84530;-66
2021/04/18 00:30:50;;;;;;;25.90;17.10;;;22.70;40.90;;;;;;6214816;28;83373;-66
2021/04/18 00:33:51;;;;;;;26.23;17.13;;;22.70;40.90;;;;;;6202120;28;83764;-66
2021/04/18 00:36:53;;;;;;;24.95;17.10;;;22.70;41.40;;;;;;6217071;28;85313;-66
2021/04/18 00:39:54;;;;;;;26.13;17.75;;;22.70;40.80;;;;;;6205698;28;83332;-66
2021/04/18 00:42:54;;;;;;;24.63;16.48;;;22.70;41.00;;;;;;6199900;28;84042;-65
2021/04/18 00:45:55;;;;;;;25.83;16.83;;;22.70;40.70;;;;;;6189162;28;83443;-65
2021/04/18 00:48:55;;;;;;;26.30;17.20;;;22.80;40.40;;;;;;6195636;28;83458;-65
2021/04/18 00:51:56;;;;;;;24.83;16.63;;;22.70;40.60;;;;;;6191789;28;84739;-66
2021/04/18 00:54:56;;;;;;;25.63;16.67;;;22.70;40.30;;;;;;6209036;27;85617;-66
2021/04/18 00:57:57;;;;;;;26.73;16.80;;;22.70;40.20;;;;;;6202353;28;83779;-66
2021/04/18 01:00:58;;;;;;;25.50;15.75;;;22.70;40.10;;;;;;6204282;28;85873;-66
2021/04/18 01:03:58;;;;;;;26.80;16.77;;;22.80;40.30;;;;;;6191251;28;83325;-67
2021/04/18 01:06:59;;;;;;;26.45;17.48;;;22.70;40.10;;;;;;6207045;28;84882;-66
2021/04/18 01:10:01;;;;;;;20.35;15.00;;;22.70;40.50;;;;;;6213162;28;86749;-66
2021/04/18 01:13:02;;;;;;;24.77;16.45;;;22.80;40.20;;;;;;6197788;28;83328;-66
2021/04/18 01:16:03;;;;;;;20.77;15.43;;;22.70;40.10;;;;;;6222965;27;84953;-67
2021/04/18 01:19:04;;;;;;;23.73;16.17;;;22.80;40.30;;;;;;6187865;28;84926;-65
2021/04/18 01:22:05;;;;;;;23.90;15.23;;;22.70;40.40;;;;;;6192444;27;83005;-66
2021/04/18 01:25:21;;;;;;;;;;;22.70;40.20;;;;;;6198270;27;85729;-65
2021/04/18 01:28:28;;;;;;;24.35;16.15;;;22.80;40.80;;;;;;6201855;28;86133;-66
2021/04/18 01:31:28;;;;;;;27.20;15.90;;;22.70;40.30;;;;;;6205030;28;83729;-66
2021/04/18 01:34:29;;;;;;;24.67;15.63;;;22.80;40.20;;;;;;6212610;28;86392;-66
2021/04/18 01:37:29;;;;;;;21.75;15.38;;;22.70;40.30;;;;;;6193260;28;83968;-66
2021/04/18 01:40:30;;;;;;;22.80;15.52;;;22.70;40.10;;;;;;6194194;28;83543;-66
2021/04/18 01:43:31;;;;;;;24.20;15.55;;;22.70;40.10;;;;;;6191323;28;83537;-67
2021/04/18 01:46:32;;;;;;;23.33;15.80;;;22.70;40.30;;;;;;6185265;28;83385;-66
2021/04/18 01:49:34;;;;;;;21.73;15.40;;;22.70;40.50;;;;;;6194017;28;86076;-67
2021/04/18 01:52:35;;;;;;;24.40;15.35;;;22.70;40.10;;;;;;6194744;28;85374;-69
2021/04/18 01:55:35;;;;;;;24.48;15.43;;;22.70;40.50;;;;;;6177739;28;85202;-66
2021/04/18 01:58:36;;;;;;;20.02;14.82;;;22.70;40.50;;;;;;6212991;28;86615;-67
2021/04/18 02:01:47;;;;;;;21.98;15.52;;;22.70;40.50;;;;;;6209257;28;84300;-66
2021/04/18 02:04:48;;;;;;;24.60;14.88;;;22.70;40.30;;;;;;6190481;28;83239;-66
2021/04/18 02:07:49;;;;;;;22.20;15.20;;;22.70;40.20;;;;;;6187793;28;85909;-67
2021/04/18 02:10:50;;;;;;;21.90;14.13;;;22.70;40.10;;;;;;6190974;28;83760;-67
2021/04/18 02:13:51;;;;;;;25.15;15.90;;;22.70;39.90;;;;;;6208683;28;85892;-67
2021/04/18 02:17:10;;;;;;;24.02;15.75;;;22.70;40.00;;;;;;6213078;28;83904;-67
2021/04/18 02:20:15;;;;;;;24.23;15.30;;;22.70;39.90;;;;;;6211862;28;86319;-66
2021/04/18 02:23:16;;;;;;;23.42;15.93;;;22.70;39.60;;;;;;6194896;28;84108;-66
2021/04/18 02:26:17;;;;;;;21.05;14.55;;;22.70;39.50;;;;;;6208187;28;85801;-66
2021/04/18 02:29:21;;;;;;;23.38;15.27;;;22.70;39.50;;;;;;6190036;28;85200;-67
2021/04/18 02:32:27;;;;;;;26.33;14.68;;;22.70;39.40;;;;;;6213366;28;86038;-66
2021/04/18 02:35:34;;;;;;;24.38;15.52;;;22.70;39.60;;;;;;6192922;28;83862;-67
2021/04/18 02:38:35;;;;;;;23.77;14.70;;;22.70;39.70;;;;;;6208000;28;85274;-67
2021/04/18 02:41:36;;;;;;;20.20;13.77;;;22.70;39.40;;;;;;6187233;28;85204;-67
2021/04/18 02:44:37;;;;;;;20.77;14.82;;;22.70;39.40;;;;;;6213894;28;84000;-66
2021/04/18 02:47:38;;;;;;;23.50;15.07;;;22.70;39.60;;;;;;6187677;28;85666;-67
2021/04/18 02:50:39;;;;;;;20.42;14.00;;;22.70;39.40;;;;;;6202829;27;85510;-67
2021/04/18 02:53:41;;;;;;;24.63;14.65;;;22.70;39.70;;;;;;6197316;27;86043;-67
2021/04/18 02:56:43;;;;;;;21.48;13.88;;;22.70;39.40;;;;;;6184305;28;83248;-67
2021/04/18 02:59:47;;;;;;;21.20;14.68;;;22.70;39.30;;;;;;6228447;28;87185;-67
2021/04/18 03:02:48;;;;;;;23.85;14.10;;;22.70;39.00;;;;;;6211299;28;82973;-66
2021/04/18 03:05:49;;;;;;;21.27;14.57;;;22.70;39.40;;;;;;6192336;28;85033;-66
2021/04/18 03:08:49;;;;;;;21.23;13.93;;;22.70;40.30;;;;;;6219517;28;84281;-68
2021/04/18 03:11:50;;;;;;;20.40;14.77;;;22.70;39.40;;;;;;6186976;28;85602;-68
2021/04/18 03:15:04;;;;;;;21.27;14.73;;;22.70;39.50;;;;;;6187611;28;85870;-68
2021/04/18 03:18:08;;;;;;;20.20;14.10;;;22.70;39.30;;;;;;6214761;28;84221;-67
2021/04/18 03:21:10;;;;;;;21.45;14.32;;;22.70;39.70;;;;;;6195408;27;83016;-67
2021/04/18 03:24:12;;;;;;;22.25;15.20;;;22.70;39.40;;;;;;6193780;28;85333;-67
2021/04/18 03:27:13;;;;;;;22.70;14.85;;;22.70;39.30;;;;;;6185165;28;83071;-67
2021/04/18 03:30:20;;;;;;;21.35;13.65;;;22.60;39.20;;;;;;6215316;28;90442;-67
2021/04/18 03:33:27;;;;;;;18.92;13.75;;;22.60;39.30;;;;;;6205410;28;84350;-66
2021/04/18 03:36:37;;;;;;;19.70;14.20;;;22.70;39.00;;;;;;6193999;28;83458;-66
2021/04/18 03:39:47;;;;;;;20.13;13.48;;;22.70;39.10;;;;;;6195420;28;84078;-66
2021/04/18 03:42:48;;;;;;;22.30;14.00;;;22.70;39.30;;;;;;6215328;28;85991;-66
2021/04/18 03:45:51;;;;;;;20.25;14.00;;;22.70;39.20;;;;;;6193094;28;85531;-66
2021/04/18 03:48:51;;;;;;;23.63;14.73;;;22.70;38.90;;;;;;6236916;28;85463;-66
2021/04/18 03:51:53;;;;;;;19.85;13.85;;;22.70;38.80;;;;;;6214382;28;83422;-67
2021/04/18 03:54:54;;;;;;;21.08;14.25;;;22.70;38.70;;;;;;6208524;27;83060;-65
2021/04/18 03:57:54;;;;;;;22.17;14.60;;;22.70;38.30;;;;;;6193941;28;86018;-67
2021/04/18 04:00:57;;;;;;;24.67;15.55;;;22.70;38.40;;;;;;6193950;28;86079;-69
2021/04/18 04:03:58;;;;;;;25.55;15.57;;;22.70;39.10;;;;;;6201521;28;84981;-67
2021/04/18 04:07:04;;;;;;;26.08;15.25;;;22.70;39.20;;;;;;6212333;28;84441;-66
2021/04/18 04:10:05;;;;;;;20.63;14.45;;;22.80;38.40;;;;;;6201428;28;83626;-67
2021/04/18 04:13:08;;;;;;;22.35;14.32;;;22.80;38.20;;;;;;6215528;27;85781;-68
2021/04/18 04:16:10;;;;;;;26.92;14.93;;;22.80;39.00;;;;;;6215936;28;84222;-67
2021/04/18 04:19:12;;;;;;;23.38;14.45;;;22.80;38.20;;;;;;6215871;28;85353;-67
2021/04/18 04:22:31;;;;;;;22.40;15.50;;;22.80;38.20;;;;;;6198799;28;83550;-67
2021/04/18 04:25:45;;;;;;;21.70;14.90;;;22.80;38.00;;;;;;6201817;28;84202;-67
2021/04/18 04:28:45;;;;;;;29.52;15.98;;;22.80;38.00;;;;;;6193775;28;83635;-67
2021/04/18 04:31:46;;;;;;;27.65;16.13;;;22.80;38.00;;;;;;6207949;28;83770;-67
2021/04/18 04:34:46;;;;;;;27.08;16.73;;;22.80;38.10;;;;;;6213621;28;83321;-66
2021/04/18 04:37:47;;;;;;;27.52;16.17;;;22.90;38.30;;;;;;6205656;27;83483;-66
2021/04/18 04:40:47;;;;;;;26.33;15.65;;;22.90;39.00;;;;;;6210182;28;84450;-65
2021/04/18 04:43:48;;;;;;;28.80;17.58;;;23.00;38.80;;;;;;6191591;28;83278;-65
2021/04/18 04:46:48;;;;;;;29.50;17.95;;;22.90;38.80;;;;;;6204713;28;83863;-66
2021/04/18 04:49:49;;;;;;;24.63;14.68;;;22.90;38.50;;;;;;6205649;28;85914;-66
2021/04/18 04:52:49;;;;;;;21.98;13.88;;;22.90;38.60;;;;;;6207395;28;84413;-67
2021/04/18 04:55:50;;;;;;;17.80;12.20;;;22.90;38.60;;;;;;6200212;28;84930;-67
2021/04/18 04:58:50;;;;;;;16.00;11.23;;;22.90;38.60;;;;;;6198693;28;84167;-68
2021/04/18 05:01:51;;;;;;;17.75;10.32;;;22.90;38.60;;;;;;6177378;28;83722;-67
2021/04/18 05:04:52;;;;;;;16.52;9.93;;;22.80;38.60;;;;;;6180086;28;83478;-67
2021/04/18 05:07:52;;;;;;;15.00;9.30;;;22.80;38.60;;;;;;6199588;28;82983;-68
2021/04/18 05:10:53;;;;;;;14.43;9.38;;;22.80;38.90;;;;;;6205211;28;80864;-68
2021/04/18 05:13:53;;;;;;;15.63;9.93;;;22.80;38.90;;;;;;6207306;28;80735;-68
2021/04/18 05:16:54;;;;;;;12.88;8.30;;;22.80;39.00;;;;;;6195960;28;81874;-68
2021/04/18 05:19:54;;;;;;;13.93;8.57;;;22.90;39.30;;;;;;6192726;28;80844;-68
2021/04/18 05:22:55;;;;;;;14.27;9.15;;;22.90;39.10;;;;;;6199473;28;80232;-67
2021/04/18 05:25:55;;;;;;;15.07;9.18;;;22.90;38.90;;;;;;6198949;28;80977;-67
2021/04/18 05:28:56;;;;;;;15.95;9.25;;;22.90;39.00;;;;;;6210955;28;81178;-68
2021/04/18 05:31:57;;;;;;;13.68;9.73;;;22.90;39.40;;;;;;6201412;28;80828;-66
2021/04/18 05:34:57;;;;;;;15.05;9.80;;;23.00;39.80;;;;;;6197276;28;80641;-70
2021/04/18 05:37:58;;;;;;;16.50;10.70;;;23.00;39.80;;;;;;6195956;28;81695;-67
2021/04/18 05:40:59;;;;;;;16.65;10.70;;;23.00;40.00;;;;;;6196395;28;83272;-67
2021/04/18 05:43:59;;;;;;;17.10;10.55;;;23.00;39.80;;;;;;6194965;27;83256;-67
2021/04/18 05:47:00;;;;;;;14.23;9.40;;;23.00;39.80;;;;;;6203457;28;83533;-68
2021/04/18 05:50:00;;;;;;;17.17;10.73;;;23.10;40.00;;;;;;6211269;28;84248;-67
2021/04/18 05:53:01;;;;;;;17.92;10.35;;;23.10;40.00;;;;;;6181362;28;83413;-65
2021/04/18 05:56:01;;;;;;;17.33;10.38;;;23.20;40.10;;;;;;6192741;28;82831;-67
2021/04/18 05:59:02;;;;;;;14.15;9.60;;;23.20;40.10;;;;;;6195326;27;83382;-67
2021/04/18 06:02:03;;;;;;;16.20;10.40;;;23.20;40.20;;;;;;6209451;27;82793;-67
2021/04/18 06:05:03;;;;;;;17.30;10.63;;;23.20;40.10;;;;;;6208830;28;83553;-67
2021/04/18 06:08:03;;;;;;;14.60;10.05;;;23.20;40.00;;;;;;6189575;28;83495;-67
2021/04/18 06:11:04;;;;;;;14.98;9.20;;;23.30;40.20;;;;;;6191781;28;84096;-67
2021/04/18 06:14:05;;;;;;;14.65;8.52;;;23.30;40.00;;;;;;6198246;28;81846;-69
2021/04/18 06:17:06;;;;;;;16.77;9.02;;;23.30;40.00;;;;;;6196096;28;80435;-69
2021/04/18 06:20:06;;;;;;;17.38;9.75;;;23.30;40.10;;;;;;6221474;27;80863;-68
2021/04/18 06:23:06;;;;;;;14.48;8.30;;;23.30;39.80;;;;;;6236484;28;80890;-67
2021/04/18 06:26:07;;;;;;;12.63;7.45;;;23.30;39.90;;;;;;6212264;27;81462;-68
2021/04/18 06:29:08;;;;;;;13.88;7.93;;;23.30;39.80;;;;;;6202916;28;80803;-68
2021/04/18 06:32:08;;;;;;;13.38;8.13;;;23.30;39.90;;;;;;6198089;28;80580;-67
2021/04/18 06:35:09;;;;;;;11.57;7.85;;;23.30;39.90;;;;;;6191249;28;83222;-68
2021/04/18 06:38:10;;;;;;;12.15;7.90;;;23.30;40.00;;;;;;6206274;28;80691;-64
2021/04/18 06:41:11;;;;;;;11.65;7.93;;;23.40;39.90;;;;;;6198987;28;81236;-64
2021/04/18 06:44:11;;;;;;;10.38;7.47;;;23.30;39.70;;;;;;6211453;27;80492;-64
2021/04/18 06:47:12;;;;;;;13.95;8.48;;;23.30;39.80;;;;;;6216168;28;80593;-64
2021/04/18 06:50:12;;;;;;;12.00;8.30;;;23.30;40.10;;;;;;6215321;28;91198;-63
2021/04/18 06:53:13;;;;;;;11.05;7.68;;;23.30;40.00;;;;;;6221781;28;80986;-63
2021/04/18 06:56:14;;;;;;;12.88;7.72;;;23.30;40.00;;;;;;6228252;27;80819;-63
2021/04/18 06:59:14;;;;;;;10.07;6.53;;;23.30;39.90;;;;;;6196670;28;80947;-63
2021/04/18 07:02:15;;;;;;;13.55;8.13;;;23.30;39.80;;;;;;6204268;28;81932;-63
2021/04/18 07:05:15;;;;;;;10.82;6.93;;;23.30;39.60;;;;;;6211772;28;82137;-63
2021/04/18 07:08:16;;;;;;;9.70;6.78;;;23.30;39.60;;;;;;6199728;28;80777;-63
2021/04/18 07:11:18;;;;;;;11.10;6.68;;;23.30;39.40;;;;;;6203547;28;81223;-64
2021/04/18 07:14:19;;;;;;;14.43;7.03;;;23.30;39.30;;;;;;6201432;28;80531;-64
2021/04/18 07:17:19;;;;;;;9.50;6.70;;;23.30;39.50;;;;;;6223784;27;81997;-64
2021/04/18 07:20:20;;;;;;;9.77;6.85;;;23.30;39.40;;;;;;6236017;27;81783;-63
2021/04/18 07:23:20;;;;;;;10.20;6.78;;;23.20;39.30;;;;;;6211539;27;81957;-62
2021/04/18 07:26:22;;;;;;;12.52;6.93;;;23.20;39.40;;;;;;6201385;28;80713;-62
2021/04/18 07:29:22;;;;;;;11.52;7.75;;;23.30;39.60;;;;;;6197818;28;81605;-64
2021/04/18 07:32:23;;;;;;;12.73;7.85;;;23.20;39.50;;;;;;6208509;28;81145;-63
2021/04/18 07:35:23;;;;;;;11.23;7.00;;;23.10;39.60;;;;;;6205261;28;81368;-62
2021/04/18 07:38:24;;;;;;;11.48;7.28;;;23.20;39.80;;;;;;6207553;28;80863;-63
2021/04/18 07:41:24;;;;;;;12.38;7.05;;;23.20;39.80;;;;;;6204939;28;84057;-63
2021/04/18 07:44:27;;;;;;;11.95;7.45;;;23.20;40.00;;;;;;6199071;28;81214;-63
2021/04/18 07:47:27;;;;;;;11.45;7.25;;;23.20;39.70;;;;;;6203240;27;83405;-63
2021/04/18 07:50:28;;;;;;;10.52;7.20;;;23.20;39.50;;;;;;6195009;28;82562;-63
2021/04/18 07:53:28;;;;;;;12.48;7.07;;;23.30;39.20;;;;;;6193518;28;81066;-63
2021/04/18 07:56:29;;;;;;;7.90;6.15;;;23.30;39.10;;;;;;6199197;28;81084;-64
2021/04/18 07:59:29;;;;;;;11.85;7.55;;;23.30;39.10;;;;;;6190258;28;81303;-63
2021/04/18 08:02:30;;;;;;;14.15;7.00;;;23.30;39.60;;;;;;6202507;27;80984;-62
2021/04/18 08:05:30;;;;;;;9.48;6.40;;;23.30;39.50;;;;;;6210930;27;81483;-65
2021/04/18 08:08:31;;;;;;;9.32;6.78;;;23.30;39.20;;;;;;6211195;28;80606;-63
2021/04/18 08:11:31;;;;;;;10.32;6.85;;;23.30;39.20;;;;;;6200667;28;81481;-65
2021/04/18 08:14:32;;;;;;;10.75;6.78;;;23.20;39.50;;;;;;6208684;28;80981;-66
2021/04/18 08:17:32;;;;;;;11.07;5.63;;;23.30;39.50;;;;;;6205438;28;80754;-66
2021/04/18 08:20:34;;;;;;;17.25;6.32;;;23.20;39.60;;;;;;6207113;28;80656;-66
2021/04/18 08:23:34;;;;;;;8.63;5.25;;;23.10;39.70;;;;;;6193104;28;81762;-68
2021/04/18 08:26:35;;;;;;;9.95;5.25;;;23.20;39.90;;;;;;6196185;28;80629;-66
2021/04/18 08:29:36;;;;;;;8.68;5.53;;;23.20;39.70;;;;;;6199138;28;80641;-64
2021/04/18 08:32:36;;;;;;;5.45;4.63;;;23.20;39.30;;;;;;6200038;28;80673;-64
2021/04/18 08:35:37;;;;;;;6.70;4.43;;;23.20;39.60;;;;;;6199997;28;80746;-64
2021/04/18 08:38:37;;;;;;;6.10;4.68;;;23.20;39.90;;;;;;6206183;28;81725;-63
2021/04/18 08:41:38;;;;;;;6.07;4.10;;;23.20;39.80;;;;;;6209142;28;80602;-63
2021/04/18 08:44:38;;;;;;;6.90;4.45;;;23.20;39.90;;;;;;6193352;28;80932;-63
2021/04/18 08:47:40;;;;;;;6.20;4.45;;;23.30;39.80;;;;;;6207991;27;80769;-63
2021/04/18 08:50:40;;;;;;;5.30;4.25;;;23.30;40.00;;;;;;6192329;28;81800;-62
2021/04/18 08:53:41;;;;;;;6.93;4.32;;;23.30;40.00;;;;;;6197893;28;80572;-64
2021/04/18 08:56:41;;;;;;;7.10;3.50;;;23.30;40.00;;;;;;6192301;28;80406;-63
2021/04/18 08:59:42;;;;;;;5.65;3.50;;;23.30;39.90;;;;;;6205400;28;81051;-64
2021/04/18 09:02:43;;;;;;;5.65;3.88;;;23.20;39.10;;;;;;6221381;28;82057;-63
2021/04/18 09:05:43;;;;;;;8.40;3.80;;;23.20;39.80;;;;;;6216341;27;81568;-63
2021/04/18 09:08:44;;;;;;;7.28;4.07;;;23.30;40.60;;;;;;6195219;28;80658;-64
2021/04/18 09:11:47;;;;;;;11.00;3.88;;;23.30;41.00;;;;;;6206648;28;81097;-63
2021/04/18 09:14:47;;;;;;;7.28;4.22;;;23.30;41.80;;;;;;6213524;28;81144;-64
2021/04/18 09:17:48;;;;;;;7.53;3.60;;;23.30;41.60;;;;;;6208771;28;80950;-63
2021/04/18 09:20:48;;;;;;;9.05;4.20;;;23.30;42.00;;;;;;6199850;28;80655;-64
2021/04/18 09:23:49;;;;;;;6.05;4.40;;;23.30;42.60;;;;;;6204696;28;80820;-64
2021/04/18 09:26:49;;;;;;;8.23;5.20;;;23.30;43.40;;;;;;6213629;28;84040;-63
2021/04/18 09:29:50;;;;;;;7.15;4.07;;;23.40;43.70;;;;;;6202969;28;81581;-65
2021/04/18 09:32:50;;;;;;;11.10;6.63;;;23.50;44.10;;;;;;6201103;27;80825;-64
2021/04/18 09:35:51;;;;;;;8.45;4.57;;;23.50;44.20;;;;;;6209095;28;82050;-64
2021/04/18 09:38:51;;;;;;;13.32;4.43;;;23.40;43.40;;;;;;6204958;27;80857;-63
2021/04/18 09:41:52;;;;;;;12.32;5.78;;;23.50;45.20;;;;;;6207334;28;82941;-63
2021/04/18 09:44:55;;;;;;;11.13;5.30;;;23.50;45.80;;;;;;6198802;27;81133;-65
2021/04/18 09:47:55;;;;;;;18.00;8.30;;;23.60;45.90;;;;;;6190681;28;81305;-66
2021/04/18 09:50:56;;;;;;;17.77;6.57;;;23.60;46.20;;;;;;6194313;28;80782;-65
2021/04/18 09:53:56;;;;;;;18.17;7.18;;;23.60;45.30;;;;;;6194355;28;81408;-65
2021/04/18 09:56:57;;;;;;;17.48;7.15;;;23.70;45.90;;;;;;6198595;28;80790;-66
2021/04/18 09:59:58;;;;;;;18.30;6.30;;;23.70;46.00;;;;;;6198482;28;80771;-65
2021/04/18 10:02:58;;;;;;;14.90;7.03;;;23.70;45.90;;;;;;6197717;28;80885;-63
2021/04/18 10:05:59;;;;;;;21.20;8.25;;;23.70;46.40;;;;;;6206685;28;80700;-63
2021/04/18 10:09:03;;;;;;;18.05;6.50;;;23.70;46.60;;;;;;6205445;28;82489;-64
2021/04/18 10:12:04;;;;;;;17.15;4.90;;;23.70;45.20;;;;;;6213840;28;81803;-65
2021/04/18 10:15:05;;;;;;;20.73;6.95;;;23.60;45.90;;;;;;6191970;28;82529;-63
2021/04/18 10:18:05;;;;;;;17.77;7.32;;;23.60;45.90;;;;;;6212323;28;81475;-66
2021/04/18 10:21:06;;;;;;;33.85;9.82;;;23.50;45.40;;;;;;6159669;28;81635;-66
2021/04/18 10:24:06;;;;;;;37.72;11.25;;;23.50;46.10;;;;;;6195527;28;80813;-66
2021/04/18 10:27:07;;;;;;;43.55;12.10;;;23.50;46.50;;;;;;6179209;28;83270;-66
2021/04/18 10:30:07;;;;;;;32.08;11.10;;;23.40;46.90;;;;;;6193179;28;83914;-66
2021/04/18 10:33:08;;;;;;;28.05;11.75;;;23.40;46.60;;;;;;6202382;28;83113;-66
2021/04/18 10:36:08;;;;;;;36.92;9.18;;;23.40;46.10;;;;;;6222415;28;84031;-67
2021/04/18 10:39:09;;;;;;;32.55;9.38;;;23.40;45.80;;;;;;6212711;28;84066;-66
2021/04/18 10:42:10;;;;;;;24.08;8.38;;;23.40;45.70;;;;;;6212480;28;81253;-65
2021/04/18 10:45:12;;;;;;;24.17;7.75;;;23.30;45.30;;;;;;6211875;28;81532;-65
2021/04/18 10:48:12;;;;;;;23.48;8.18;;;23.30;45.30;;;;;;6201582;28;80917;-65
2021/04/18 10:51:13;;;;;;;18.75;6.70;;;23.30;45.10;;;;;;6194622;28;81612;-65
2021/04/18 10:54:13;;;;;;;22.27;7.68;;;23.30;44.80;;;;;;6197698;28;81149;-62
2021/04/18 10:57:14;;;;;;;16.70;6.80;;;23.30;44.70;;;;;;6228787;28;81297;-65
2021/04/18 11:00:14;;;;;;;17.50;6.72;;;23.30;44.10;;;;;;6202165;28;81182;-67
2021/04/18 11:03:15;;;;;;;13.68;6.30;;;23.30;44.00;;;;;;6220280;28;80948;-64
2021/04/18 11:06:15;;;;;;;13.82;5.55;;;23.30;44.60;;;;;;6205962;27;82696;-66
2021/04/18 11:09:16;;;;;;;12.88;5.63;;;23.30;43.80;;;;;;6216281;28;82849;-64
2021/04/18 11:12:17;;;;;;;17.05;5.30;;;23.30;43.70;;;;;;6209276;28;81501;-65
2021/04/18 11:15:17;;;;;;;12.55;5.35;;;23.20;43.50;;;;;;6203711;28;80854;-64
2021/04/18 11:18:18;;;;;;;10.75;5.75;;;23.30;43.80;;;;;;6217047;28;80789;-67
2021/04/18 11:21:19;;;;;;;9.45;4.68;;;23.30;43.50;;;;;;6225611;28;81513;-63
2021/04/18 11:24:19;;;;;;;14.98;4.68;;;23.30;43.40;;;;;;6192554;28;81429;-65
2021/04/18 11:27:20;;;;;;;8.65;4.35;;;23.30;43.10;;;;;;6201674;28;80568;-65
2021/04/18 11:30:20;;;;;;;9.45;4.82;;;23.30;42.80;;;;;;6216321;27;80462;-65
2021/04/18 11:33:22;;;;;;;6.63;4.30;;;23.30;42.70;;;;;;6192369;28;84139;-67
2021/04/18 11:36:23;;;;;;;6.65;4.55;;;23.30;42.30;;;;;;6197172;28;80501;-68
2021/04/18 11:39:24;;;;;;;7.68;4.70;;;23.40;42.30;;;;;;6210193;28;82632;-67
2021/04/18 11:42:24;;;;;;;10.02;5.32;;;23.40;42.60;;;;;;6192837;28;80755;-66
2021/04/18 11:45:25;;;;;;;9.05;5.72;;;23.40;42.30;;;;;;6203203;28;80861;-66
2021/04/18 11:48:25;;;;;;;10.30;6.03;;;23.40;42.10;;;;;;6214789;28;80576;-65
2021/04/18 11:51:26;;;;;;;9.20;5.30;;;23.50;41.90;;;;;;6197083;28;83234;-66
2021/04/18 11:54:26;;;;;;;11.23;6.88;;;23.50;41.60;;;;;;6196029;28;81238;-63
2021/04/18 11:57:27;;;;;;;14.48;7.85;;;23.50;41.40;;;;;;6202982;28;80522;-67
2021/04/18 12:00:27;;;;;;;15.98;8.30;;;23.60;41.40;;;;;;6213678;28;83362;-67
2021/04/18 12:03:28;;;;;;;23.52;11.25;;;23.60;41.20;;;;;;6208590;27;81074;-65
2021/04/18 12:06:29;;;;;;;31.35;12.50;;;23.50;41.10;;;;;;6222499;27;83772;-66
2021/04/18 12:09:29;;;;;;;32.95;16.85;;;23.50;40.90;;;;;;6199996;28;83453;-66
2021/04/18 12:12:30;;;;;;;35.67;17.10;;;23.50;41.10;;;;;;6199786;28;83343;-66
2021/04/18 12:15:30;;;;;;;35.42;16.50;;;23.50;41.00;;;;;;6198703;28;83848;-66
2021/04/18 12:18:31;;;;;;;32.88;15.55;;;23.50;40.90;;;;;;6205774;28;86140;-67
2021/04/18 12:21:32;;;;;;;31.75;14.52;;;23.50;40.80;;;;;;6194626;28;83035;-67
2021/04/18 12:24:32;;;;;;;22.67;12.32;;;23.50;40.80;;;;;;6215710;28;83515;-70
2021/04/18 12:27:33;;;;;;;24.90;11.80;;;23.50;40.60;;;;;;6200120;28;83521;-70
2021/04/18 12:30:33;;;;;;;31.45;11.18;;;23.60;40.60;;;;;;6207611;28;84004;-69
2021/04/18 12:33:34;;;;;;;19.70;10.13;;;23.60;40.70;;;;;;6216928;28;83379;-69
2021/04/18 12:36:36;;;;;;;19.73;10.10;;;23.60;40.50;;;;;;6199067;28;83073;-68
2021/04/18 12:39:37;;;;;;;17.38;9.65;;;23.60;40.60;;;;;;6196480;28;84615;-71
2021/04/18 12:42:37;;;;;;;17.60;8.80;;;23.60;40.30;;;;;;6217061;28;82803;-67
2021/04/18 12:45:38;;;;;;;14.43;8.40;;;23.50;40.10;;;;;;6193978;27;80708;-67
2021/04/18 12:48:38;;;;;;;15.13;8.73;;;23.60;40.10;;;;;;6212781;28;81568;-67
2021/04/18 12:51:39;;;;;;;14.77;7.80;;;23.50;40.20;;;;;;6219398;28;80829;-66
2021/04/18 12:54:39;;;;;;;14.88;7.45;;;23.50;40.10;;;;;;6209770;28;83064;-67
2021/04/18 12:57:40;;;;;;;12.13;7.38;;;23.40;40.00;;;;;;6199861;28;81757;-66
2021/04/18 13:00:41;;;;;;;13.70;8.07;;;23.40;40.00;;;;;;6215675;28;81668;-65
2021/04/18 13:03:41;;;;;;;14.05;7.55;;;23.40;40.20;;;;;;6212463;28;81179;-68
2021/04/18 13:06:42;;;;;;;12.20;7.43;;;23.40;40.30;;;;;;6194243;28;81424;-67
2021/04/18 13:09:42;;;;;;;12.82;7.63;;;23.50;40.30;;;;;;6186641;28;80692;-68
2021/04/18 13:12:43;;;;;;;9.93;6.70;;;23.50;40.10;;;;;;6192980;28;80702;-67
2021/04/18 13:15:45;;;;;;;15.82;8.25;;;23.50;40.10;;;;;;6207760;28;80296;-67
2021/04/18 13:18:45;;;;;;;11.80;6.75;;;23.50;40.10;;;;;;6203590;27;81119;-68
2021/04/18 13:21:46;;;;;;;13.10;7.43;;;23.50;40.10;;;;;;6199699;28;83344;-67
2021/04/18 13:24:46;;;;;;;13.02;7.55;;;23.50;39.90;;;;;;6196327;28;80958;-66
2021/04/18 13:27:47;;;;;;;12.40;7.32;;;23.40;39.90;;;;;;6204583;28;81711;-67
2021/04/18 13:30:47;;;;;;;11.00;7.32;;;23.50;39.90;;;;;;6201027;27;80717;-67
2021/04/18 13:33:48;;;;;;;12.85;7.68;;;23.50;39.70;;;;;;6197234;28;80590;-68
2021/04/18 13:36:49;;;;;;;12.48;7.22;;;23.50;39.80;;;;;;6218265;27;80624;-67
2021/04/18 13:39:49;;;;;;;14.13;8.05;;;23.50;39.80;;;;;;6207972;28;80722;-67
2021/04/18 13:42:50;;;;;;;11.48;7.55;;;23.50;39.70;;;;;;6220141;28;80677;-64
2021/04/18 13:45:50;;;;;;;10.30;7.15;;;23.50;39.70;;;;;;6227150;28;81171;-64
2021/04/18 13:48:51;;;;;;;10.23;7.18;;;23.50;40.30;;;;;;6205722;28;81244;-65
2021/04/18 13:51:52;;;;;;;9.43;6.82;;;23.50;40.50;;;;;;6194832;28;80767;-64
2021/04/18 13:54:53;;;;;;;15.05;8.45;;;23.60;40.10;;;;;;6191383;28;82803;-64
2021/04/18 13:57:53;;;;;;;11.57;7.40;;;23.60;39.90;;;;;;6216305;27;81476;-65
2021/04/18 14:00:54;;;;;;;11.13;6.97;;;23.50;40.20;;;;;;6224571;28;81326;-64
2021/04/18 14:03:55;;;;;;;12.55;7.93;;;23.60;40.40;;;;;;6215915;28;80306;-62
2021/04/18 14:06:56;;;;;;;13.82;7.63;;;23.60;40.80;;;;;;6213486;28;81299;-64
2021/04/18 14:09:57;;;;;;;10.50;7.38;;;23.50;40.30;;;;;;6196895;28;80827;-65
2021/04/18 14:12:59;;;;;;;11.00;7.30;;;23.60;40.10;;;;;;6206729;28;82993;-64
2021/04/18 14:16:02;;;;;;;11.48;7.38;;;23.60;40.00;;;;;;6222131;28;82841;-64
2021/04/18 14:19:02;;;;;;;12.02;7.40;;;23.50;40.10;;;;;;6203112;28;81380;-63
2021/04/18 14:22:03;;;;;;;10.02;7.00;;;23.50;40.10;;;;;;6198456;28;80663;-62
2021/04/18 14:25:03;;;;;;;11.63;7.43;;;23.60;40.10;;;;;;6181911;28;82867;-62
2021/04/18 14:28:04;;;;;;;10.05;6.53;;;23.60;40.00;;;;;;6201693;28;80493;-63
2021/04/18 14:31:04;;;;;;;10.90;6.82;;;23.60;39.90;;;;;;6211268;28;80365;-65
2021/04/18 14:34:05;;;;;;;9.85;6.57;;;23.60;39.70;;;;;;6205551;28;80771;-66
2021/04/18 14:37:06;;;;;;;10.48;6.65;;;23.60;39.80;;;;;;6187696;28;80526;-66
2021/04/18 14:40:06;;;;;;;9.57;6.38;;;23.60;40.20;;;;;;6174886;28;82006;-65
2021/04/18 14:43:07;;;;;;;10.38;7.10;;;23.60;40.50;;;;;;6195517;28;80570;-65
2021/04/18 14:46:07;;;;;;;10.45;7.18;;;23.60;40.40;;;;;;6215174;28;81462;-64
2021/04/18 14:49:08;;;;;;;11.32;6.68;;;23.50;40.50;;;;;;6203642;28;80236;-66
2021/04/18 14:52:08;;;;;;;14.02;6.95;;;23.60;40.70;;;;;;6214907;28;81695;-64
2021/04/18 14:55:09;;;;;;;7.75;6.07;;;23.60;40.50;;;;;;6225018;28;80505;-63
2021/04/18 14:58:09;;;;;;;9.38;6.53;;;23.50;40.10;;;;;;6222809;28;80997;-63
2021/04/18 15:01:10;;;;;;;9.98;5.85;;;23.50;40.00;;;;;;6209455;28;82805;-63
2021/04/18 15:04:10;;;;;;;11.75;6.63;;;23.50;39.90;;;;;;6211493;28;81032;-63
2021/04/18 15:07:11;;;;;;;7.78;5.60;;;23.50;39.70;;;;;;6206177;28;80416;-65
2021/04/18 15:10:12;;;;;;;8.63;5.60;;;23.50;39.70;;;;;;6219048;28;80026;-66
2021/04/18 15:13:12;;;;;;;7.75;5.53;;;23.50;39.30;;;;;;6216772;28;80683;-65
2021/04/18 15:16:13;;;;;;;11.02;6.13;;;23.50;39.10;;;;;;6201989;28;82004;-65
2021/04/18 15:19:13;;;;;;;7.25;4.85;;;23.50;39.10;;;;;;6191000;28;80340;-65
2021/04/18 15:22:15;;;;;;;8.27;5.07;;;23.60;39.10;;;;;;6194751;28;81690;-64
2021/04/18 15:25:18;;;;;;;9.05;5.65;;;23.60;39.00;;;;;;6198311;28;81443;-65
2021/04/18 15:28:19;;;;;;;8.40;5.20;;;23.60;39.00;;;;;;6219653;28;80469;-65